Time;durP1;ratioP1;P1;durP2;ratioP2;P2;SDS_P1;SDS_P2;PMS_P1;PMS_P2;Temp;Humidity;BMP_temperature;BMP_pressure;BME280_temperature;BME280_humidity;BME280_pressure;Samples;Min_cycle;Max_cycle;Signal;HPM_P1;HPM_P2
2022/06/04 00:00:53;;;;;;;16.70;9.10;;;11.40;99.90;;;;;;4977064;28;20143;-56
2022/06/04 00:03:19;;;;;;;18.38;9.18;;;11.40;99.90;;;;;;4977059;28;20059;-55
2022/06/04 00:05:48;;;;;;;17.77;9.10;;;11.40;99.90;;;;;;4976918;28;20047;-55
2022/06/04 00:08:14;;;;;;;17.15;9.00;;;11.40;99.90;;;;;;4977237;28;20121;-54
2022/06/04 00:16:13;;;;;;;22.48;9.32;;;11.20;99.90;;;;;;4977161;28;20065;-53
2022/06/04 00:18:40;;;;;;;20.08;9.20;;;11.70;99.90;;;;;;4977037;28;20047;-55
2022/06/04 00:21:07;;;;;;;21.63;9.32;;;11.30;99.90;;;;;;4976808;28;20051;-54
2022/06/04 00:23:33;;;;;;;15.40;9.05;;;11.30;99.90;;;;;;4976883;28;20051;-55
2022/06/04 00:26:01;;;;;;;19.02;9.05;;;11.10;99.90;;;;;;4976513;28;20082;-55
2022/06/04 00:28:27;;;;;;;17.38;9.20;;;11.40;99.90;;;;;;4976885;28;20047;-54
2022/06/04 00:33:28;;;;;;;17.02;9.20;;;11.00;99.90;;;;;;5096604;23;20050;-55
2022/06/04 00:35:57;;;;;;;20.23;9.52;;;11.30;99.90;;;;;;4974664;28;20054;-54
2022/06/04 00:38:25;;;;;;;19.95;9.68;;;11.10;99.90;;;;;;4974624;28;20510;-55
2022/06/04 00:40:53;;;;;;;15.52;8.93;;;10.80;99.90;;;;;;4974890;28;20053;-55
2022/06/04 00:43:20;;;;;;;17.45;9.75;;;11.00;99.90;;;;;;4957405;28;20063;-54
2022/06/04 00:46:23;;;;;;;16.00;9.95;;;11.50;99.90;;;;;;4974244;28;20078;-54
2022/06/04 00:48:49;;;;;;;18.77;9.90;;;10.70;99.90;;;;;;4974462;28;20521;-54
2022/06/04 00:51:14;;;;;;;17.50;10.02;;;10.90;99.90;;;;;;4974430;28;20047;-54
2022/06/04 00:53:41;;;;;;;17.63;10.02;;;11.00;99.90;;;;;;4974675;28;20039;-55
2022/06/04 00:56:19;;;;;;;23.50;10.77;;;10.50;99.90;;;;;;4957086;28;20058;-54
2022/06/04 00:58:45;;;;;;;19.33;9.73;;;10.70;99.90;;;;;;4974778;28;20134;-53
2022/06/04 01:01:22;;;;;;;16.45;10.13;;;11.00;99.90;;;;;;4957277;28;20186;-54
2022/06/04 01:04:47;;;;;;;16.33;9.65;;;10.80;99.90;;;;;;4974157;28;20117;-55
2022/06/04 01:07:43;;;;;;;21.58;10.57;;;10.90;99.90;;;;;;4974022;28;20499;-54
2022/06/04 01:10:14;;;;;;;19.70;10.07;;;10.80;99.90;;;;;;4974190;28;20129;-52
2022/06/04 01:12:57;;;;;;;24.40;10.10;;;10.50;99.90;;;;;;4974041;28;20046;-54
2022/06/04 01:15:23;;;;;;;18.15;9.73;;;10.90;99.90;;;;;;4974408;28;20097;-53
2022/06/04 01:18:11;;;;;;;17.75;10.30;;;8.00;99.90;;;;;;4974090;28;20050;-55
2022/06/04 01:20:55;;;;;;;19.05;9.88;;;11.00;99.90;;;;;;4973907;28;20086;-54
2022/06/04 01:24:01;;;;;;;23.58;10.50;;;10.90;99.90;;;;;;4974023;28;20399;-54
2022/06/04 01:26:30;;;;;;;19.40;10.63;;;10.90;99.90;;;;;;4973950;28;20058;-53
2022/06/04 01:29:14;;;;;;;21.63;10.88;;;10.70;99.90;;;;;;4974010;28;20122;-54
2022/06/04 01:31:49;;;;;;;18.35;10.32;;;10.80;99.90;;;;;;4973786;28;20470;-53
2022/06/04 01:34:21;;;;;;;20.65;10.50;;;10.40;99.90;;;;;;4974153;28;20045;-54
2022/06/04 01:36:52;;;;;;;20.23;11.02;;;11.00;99.90;;;;;;4973810;28;20057;-54
2022/06/04 01:39:22;;;;;;;21.52;11.25;;;10.30;99.90;;;;;;4973779;28;20513;-54
2022/06/04 01:41:55;;;;;;;24.23;11.23;;;10.60;99.90;;;;;;4973774;28;20070;-53
2022/06/04 01:44:27;;;;;;;23.50;11.68;;;10.70;99.90;;;;;;4973236;28;20566;-52
2022/06/04 01:46:57;;;;;;;24.75;11.60;;;10.40;99.90;;;;;;4956504;28;20171;-54
2022/06/04 01:49:56;;;;;;;19.55;11.40;;;10.70;99.90;;;;;;4973556;28;20053;-53
2022/06/04 01:52:32;;;;;;;21.25;12.32;;;10.40;99.90;;;;;;4973579;28;20065;-53
2022/06/04 01:55:14;;;;;;;26.67;12.13;;;11.20;99.90;;;;;;4973778;28;20133;-54
2022/06/04 01:57:44;;;;;;;23.95;11.68;;;10.60;99.90;;;;;;4972898;28;20054;-54
2022/06/04 02:00:23;;;;;;;26.88;11.95;;;10.70;99.90;;;;;;4973705;28;20058;-53
2022/06/04 02:02:55;;;;;;;25.90;12.35;;;10.70;99.90;;;;;;4973675;28;20054;-54
2022/06/04 02:05:26;;;;;;;21.85;12.13;;;10.70;99.90;;;;;;4973290;28;20157;-54
2022/06/04 02:07:55;;;;;;;20.55;11.93;;;10.60;99.90;;;;;;4973170;28;20121;-54
2022/06/04 02:10:45;;;;;;;26.90;12.23;;;10.70;99.90;;;;;;4973335;28;20043;-55
2022/06/04 02:13:14;;;;;;;24.77;12.15;;;10.60;99.90;;;;;;4973311;28;20521;-55
2022/06/04 02:15:49;;;;;;;25.75;12.18;;;10.80;99.90;;;;;;4973520;28;20082;-55
2022/06/04 02:18:15;;;;;;;24.42;11.43;;;9.80;99.90;;;;;;4973146;28;20061;-54
2022/06/04 02:20:41;;;;;;;21.67;11.77;;;10.60;99.90;;;;;;4973217;28;20054;-54
2022/06/04 02:23:07;;;;;;;22.63;12.10;;;10.30;99.90;;;;;;4973195;28;20447;-54
2022/06/04 02:25:33;;;;;;;24.17;12.43;;;10.20;99.90;;;;;;4973288;28;20054;-54
2022/06/04 02:28:00;;;;;;;21.60;12.27;;;9.90;99.90;;;;;;4973090;28;20081;-53
2022/06/04 02:30:41;;;;;;;22.40;12.65;;;10.30;99.90;;;;;;4972970;28;20053;-55
2022/06/04 02:33:14;;;;;;;25.75;12.77;;;11.10;99.90;;;;;;4972762;28;20050;-54
2022/06/04 02:35:52;;;;;;;23.98;12.13;;;10.70;99.90;;;;;;4972733;28;20490;-54
2022/06/04 02:38:40;;;;;;;22.58;11.93;;;10.50;99.90;;;;;;4973184;28;20118;-55
2022/06/04 02:41:21;;;;;;;24.55;12.80;;;10.60;99.90;;;;;;4973070;28;20055;-54
2022/06/04 02:44:15;;;;;;;24.13;13.18;;;10.20;99.90;;;;;;4972784;28;20050;-54
2022/06/04 02:46:45;;;;;;;23.90;12.90;;;10.40;99.90;;;;;;4972896;28;20058;-54
2022/06/04 02:49:16;;;;;;;23.70;13.43;;;10.30;99.90;;;;;;4973001;28;20130;-54
2022/06/04 02:51:49;;;;;;;26.00;13.23;;;10.60;99.90;;;;;;4972896;28;20138;-60
2022/06/04 02:54:27;;;;;;;25.10;13.30;;;10.40;99.90;;;;;;4972837;28;20119;-60
2022/06/04 02:56:55;;;;;;;26.48;12.95;;;10.20;99.90;;;;;;4972941;28;20046;-61
2022/06/04 02:59:24;;;;;;;22.42;12.40;;;10.50;99.90;;;;;;4972510;28;20047;-61
2022/06/04 03:01:54;;;;;;;27.30;12.98;;;10.40;99.90;;;;;;4972498;28;20498;-60
2022/06/04 03:04:19;;;;;;;21.67;12.32;;;10.30;99.90;;;;;;4972949;28;20147;-61
2022/06/04 03:06:45;;;;;;;30.70;13.52;;;9.90;99.90;;;;;;4972685;28;20145;-60
2022/06/04 03:09:15;;;;;;;27.92;13.50;;;10.10;99.90;;;;;;4976181;28;20058;-60
2022/06/04 03:11:49;;;;;;;22.58;12.70;;;10.70;99.90;;;;;;4976454;28;20052;-60
2022/06/04 03:14:17;;;;;;;22.58;12.50;;;10.20;99.90;;;;;;4976730;28;20039;-60
2022/06/04 03:16:46;;;;;;;22.75;12.57;;;10.20;99.90;;;;;;4958980;28;20093;-61
2022/06/04 03:19:12;;;;;;;26.73;13.38;;;10.30;99.90;;;;;;4976060;28;20074;-61
2022/06/04 03:21:40;;;;;;;24.50;13.20;;;10.20;99.90;;;;;;4958695;28;20050;-61
2022/06/04 03:24:07;;;;;;;27.27;12.90;;;10.40;99.90;;;;;;4976288;28;20047;-60
2022/06/04 03:26:33;;;;;;;26.63;13.02;;;10.20;99.90;;;;;;4976353;28;20090;-61
2022/06/04 03:28:59;;;;;;;31.40;13.32;;;10.30;99.90;;;;;;4976236;28;20097;-60
2022/06/04 03:31:28;;;;;;;22.13;12.25;;;10.70;99.90;;;;;;4975965;28;20081;-60
2022/06/04 03:33:55;;;;;;;21.98;12.82;;;10.30;99.90;;;;;;4976301;28;20051;-60
2022/06/04 03:36:21;;;;;;;25.92;11.93;;;11.10;99.90;;;;;;4976214;28;20122;-60
2022/06/04 03:38:50;;;;;;;23.73;12.45;;;10.60;99.90;;;;;;4976009;28;20133;-60
2022/06/04 03:41:16;;;;;;;25.83;12.25;;;10.20;99.90;;;;;;4975633;28;20058;-60
2022/06/04 03:43:42;;;;;;;21.90;12.55;;;10.20;99.90;;;;;;4975920;28;20051;-60
2022/06/04 03:46:08;;;;;;;26.88;11.98;;;10.60;99.90;;;;;;4975738;28;20055;-60
2022/06/04 03:48:35;;;;;;;19.98;12.48;;;10.70;99.90;;;;;;4975979;28;20058;-61
2022/06/04 03:51:01;;;;;;;23.17;12.13;;;10.20;99.90;;;;;;4975352;28;20046;-61
2022/06/04 03:53:26;;;;;;;25.70;11.77;;;10.40;99.90;;;;;;4975788;28;20042;-60
2022/06/04 03:55:52;;;;;;;25.08;11.82;;;10.20;99.90;;;;;;4975678;28;20053;-61
2022/06/04 03:58:18;;;;;;;24.60;12.40;;;10.40;99.90;;;;;;4975896;28;20126;-61
2022/06/04 04:00:45;;;;;;;21.35;11.77;;;10.30;99.90;;;;;;4975536;28;20050;-54
2022/06/04 04:03:17;;;;;;;22.38;11.65;;;10.50;99.90;;;;;;4957951;28;20498;-55
2022/06/04 04:05:54;;;;;;;19.10;11.40;;;10.30;99.90;;;;;;4975230;28;20524;-54
2022/06/04 04:08:22;;;;;;;18.55;11.80;;;10.30;99.90;;;;;;4975655;28;20054;-53
2022/06/04 04:10:48;;;;;;;20.48;11.20;;;10.70;99.90;;;;;;4958105;28;20054;-54
2022/06/04 04:13:16;;;;;;;21.67;12.15;;;10.60;99.90;;;;;;4958023;28;20093;-54
2022/06/04 04:15:42;;;;;;;22.05;11.68;;;10.50;99.90;;;;;;4975594;28;20046;-55
2022/06/04 04:18:08;;;;;;;21.20;10.95;;;10.80;99.90;;;;;;4975631;28;20058;-55
2022/06/04 04:20:36;;;;;;;20.33;11.40;;;10.60;99.90;;;;;;4974769;28;20050;-55
2022/06/04 04:23:05;;;;;;;22.80;11.20;;;10.50;99.90;;;;;;4975235;28;20463;-53
2022/06/04 04:25:31;;;;;;;19.98;11.60;;;10.60;99.90;;;;;;4975043;28;20405;-55
2022/06/04 04:27:58;;;;;;;21.23;11.18;;;11.10;99.90;;;;;;4975220;28;20050;-54
2022/06/04 04:30:27;;;;;;;18.75;10.68;;;10.80;99.90;;;;;;4975277;28;20097;-54
2022/06/04 04:32:53;;;;;;;24.65;10.00;;;11.30;99.90;;;;;;4974668;28;20066;-55
2022/06/04 04:35:22;;;;;;;14.52;8.98;;;12.20;99.90;;;;;;4974860;28;20065;-55
2022/06/04 04:37:48;;;;;;;18.45;8.77;;;13.00;99.90;;;;;;4974859;28;20335;-54
2022/06/04 04:40:16;;;;;;;15.00;8.20;;;12.90;99.90;;;;;;4957912;28;20100;-55
2022/06/04 04:42:43;;;;;;;15.60;8.57;;;13.10;99.90;;;;;;4974888;28;20051;-55
2022/06/04 04:45:10;;;;;;;15.73;8.35;;;13.50;99.90;;;;;;4974475;28;20058;-55
2022/06/04 04:47:39;;;;;;;18.63;8.88;;;13.60;99.90;;;;;;4957132;28;20050;-55
2022/06/04 04:50:08;;;;;;;13.60;8.80;;;13.70;99.90;;;;;;4974661;28;20054;-55
2022/06/04 04:52:34;;;;;;;17.20;8.50;;;13.90;99.90;;;;;;4974654;28;20113;-61
2022/06/04 04:54:59;;;;;;;17.25;8.30;;;13.90;99.90;;;;;;4974449;28;20058;-62
2022/06/04 04:57:25;;;;;;;14.98;8.07;;;14.40;99.90;;;;;;4974589;28;20117;-61
2022/06/04 04:59:51;;;;;;;16.48;8.07;;;14.30;99.90;;;;;;4974505;28;20512;-61
2022/06/04 05:02:17;;;;;;;16.48;7.80;;;14.20;99.90;;;;;;4974616;28;20491;-61
2022/06/04 05:04:42;;;;;;;15.02;8.10;;;14.10;99.90;;;;;;4974374;28;20483;-61
2022/06/04 05:07:11;;;;;;;16.65;7.75;;;14.30;99.90;;;;;;4974344;28;20463;-61
2022/06/04 05:09:40;;;;;;;16.50;7.68;;;14.80;99.90;;;;;;4974341;28;20114;-61
2022/06/04 05:12:08;;;;;;;13.65;7.47;;;15.30;99.90;;;;;;4974175;28;20058;-61
2022/06/04 05:14:37;;;;;;;11.70;6.85;;;15.80;99.90;;;;;;4974105;28;20053;-61
2022/06/04 05:17:04;;;;;;;14.77;6.60;;;16.20;99.90;;;;;;4974202;28;20055;-62
2022/06/04 05:19:30;;;;;;;13.55;6.82;;;16.40;99.90;;;;;;4956563;28;20058;-62
2022/06/04 05:21:56;;;;;;;14.65;7.18;;;17.00;99.90;;;;;;4974305;28;20093;-62
2022/06/04 05:24:28;;;;;;;15.48;6.72;;;17.10;99.90;;;;;;4956727;28;20054;-62
2022/06/04 05:26:54;;;;;;;12.40;6.53;;;17.50;99.90;;;;;;4973679;28;20513;-62
2022/06/04 05:29:21;;;;;;;15.18;6.90;;;17.40;99.90;;;;;;4973884;28;20050;-62
2022/06/04 05:31:47;;;;;;;10.40;6.32;;;17.50;99.90;;;;;;4972978;28;20078;-62
2022/06/04 05:34:14;;;;;;;11.68;6.68;;;17.90;99.90;;;;;;4974030;28;20047;-63
2022/06/04 05:36:40;;;;;;;11.13;6.10;;;18.50;99.90;;;;;;4973746;28;20051;-62
2022/06/04 05:39:07;;;;;;;16.33;6.28;;;18.20;99.90;;;;;;4973483;28;20531;-62
2022/06/04 05:41:33;;;;;;;11.40;5.88;;;18.40;99.90;;;;;;4973824;28;20050;-62
2022/06/04 05:44:02;;;;;;;12.70;6.15;;;18.50;99.90;;;;;;4956636;28;20054;-62
2022/06/04 05:46:28;;;;;;;10.90;6.07;;;18.50;99.90;;;;;;4973274;28;20491;-62
2022/06/04 05:48:53;;;;;;;12.13;6.00;;;18.40;99.90;;;;;;4973621;28;20042;-62
2022/06/04 05:51:22;;;;;;;11.05;5.95;;;18.60;99.90;;;;;;4973571;28;20046;-63
2022/06/04 05:53:49;;;;;;;16.80;5.78;;;18.60;99.90;;;;;;4973460;28;20468;-62
2022/06/04 05:56:22;;;;;;;11.23;5.68;;;18.70;99.90;;;;;;4956057;28;20058;-62
2022/06/04 05:58:50;;;;;;;8.95;5.45;;;18.70;99.90;;;;;;4973606;28;20375;-62
2022/06/04 06:01:18;;;;;;;10.00;5.60;;;18.80;99.90;;;;;;4973324;28;20047;-62
2022/06/04 06:03:44;;;;;;;10.60;5.82;;;17.90;99.90;;;;;;4973531;28;20046;-62
2022/06/04 06:06:16;;;;;;;10.10;5.28;;;18.70;99.90;;;;;;4973239;28;20047;-62
2022/06/04 06:08:41;;;;;;;9.60;5.80;;;18.30;99.90;;;;;;4972902;28;20051;-62
2022/06/04 06:11:13;;;;;;;8.50;5.47;;;18.20;99.90;;;;;;4973246;28;20053;-62
2022/06/04 06:13:40;;;;;;;9.77;5.53;;;18.40;99.90;;;;;;4973021;28;20514;-62
2022/06/04 06:16:08;;;;;;;12.80;5.82;;;17.20;99.90;;;;;;4973160;28;20050;-62
2022/06/04 06:18:35;;;;;;;9.80;5.80;;;18.10;99.90;;;;;;4973162;28;20451;-62
2022/06/04 06:21:13;;;;;;;10.27;5.68;;;18.20;99.90;;;;;;4955899;28;20093;-62
2022/06/04 06:23:39;;;;;;;10.00;5.60;;;18.30;99.90;;;;;;4973102;28;20050;-62
2022/06/04 06:26:20;;;;;;;10.27;5.45;;;18.60;99.90;;;;;;4973139;28;20069;-62
2022/06/04 06:28:46;;;;;;;11.45;5.55;;;18.60;99.90;;;;;;4955794;28;20051;-62
2022/06/04 06:31:15;;;;;;;7.45;5.05;;;19.50;99.90;;;;;;4973012;28;20043;-62
2022/06/04 06:33:40;;;;;;;10.80;5.53;;;18.90;99.90;;;;;;4973042;28;20562;-62
2022/06/04 06:36:09;;;;;;;8.05;5.07;;;19.70;98.80;;;;;;4972899;28;20054;-62
2022/06/04 06:38:35;;;;;;;9.50;5.57;;;19.40;99.10;;;;;;4955503;28;20600;-62
2022/06/04 06:41:01;;;;;;;15.27;5.95;;;19.50;99.90;;;;;;4973026;28;20047;-62
2022/06/04 06:43:36;;;;;;;9.65;5.80;;;19.30;99.40;;;;;;4975575;28;20051;-62
2022/06/04 06:46:08;;;;;;;7.50;4.90;;;19.70;99.90;;;;;;4976653;28;20482;-62
2022/06/04 06:48:38;;;;;;;8.20;4.88;;;19.70;99.50;;;;;;4977188;28;20463;-62
2022/06/04 06:51:17;;;;;;;8.90;5.38;;;19.90;98.00;;;;;;4976436;28;20129;-62
2022/06/04 06:53:43;;;;;;;8.65;5.15;;;20.00;97.10;;;;;;4976847;28;20039;-62
2022/06/04 06:56:20;;;;;;;8.00;4.80;;;20.00;97.20;;;;;;4976386;28;20121;-62
2022/06/04 06:58:47;;;;;;;11.32;4.88;;;20.10;97.50;;;;;;4976803;28;20403;-62
2022/06/04 07:01:14;;;;;;;8.00;4.97;;;20.10;97.30;;;;;;4976746;28;20141;-62
2022/06/04 07:03:41;;;;;;;8.63;4.88;;;19.80;97.40;;;;;;4976322;28;20592;-62
2022/06/04 07:06:09;;;;;;;12.18;5.30;;;19.80;98.30;;;;;;4976540;28;20644;-62
2022/06/04 07:08:36;;;;;;;12.20;5.45;;;19.50;99.50;;;;;;4976610;28;20049;-62
2022/06/04 07:11:02;;;;;;;9.93;5.45;;;19.30;99.80;;;;;;4976615;28;20050;-62
2022/06/04 07:13:28;;;;;;;7.85;5.00;;;18.80;99.90;;;;;;4976503;28;20057;-62
2022/06/04 07:15:54;;;;;;;6.25;4.70;;;18.90;99.90;;;;;;4976398;28;20054;-62
2022/06/04 07:18:20;;;;;;;7.60;4.60;;;18.70;99.90;;;;;;4976375;28;20130;-61
2022/06/04 07:20:45;;;;;;;7.47;5.22;;;18.50;99.90;;;;;;4976294;28;20110;-61
2022/06/04 07:23:12;;;;;;;7.78;4.55;;;18.20;99.90;;;;;;4976298;28;20047;-62
2022/06/04 07:25:41;;;;;;;7.63;4.63;;;18.10;99.90;;;;;;4976048;28;20046;-61
2022/06/04 07:28:08;;;;;;;7.85;4.75;;;18.50;99.90;;;;;;4975826;28;20054;-62
2022/06/04 07:30:34;;;;;;;6.38;4.45;;;18.40;99.90;;;;;;4975999;28;20105;-62
2022/06/04 07:33:00;;;;;;;7.60;4.35;;;18.60;99.90;;;;;;4975943;28;20442;-62
2022/06/04 07:35:25;;;;;;;7.85;4.72;;;18.90;99.90;;;;;;4975563;28;20058;-61
2022/06/04 07:37:51;;;;;;;9.68;4.72;;;18.70;99.90;;;;;;4975423;28;20138;-61
2022/06/04 07:40:17;;;;;;;8.60;4.72;;;18.60;99.90;;;;;;4975815;28;20105;-62
2022/06/04 07:42:42;;;;;;;7.43;4.53;;;18.50;99.90;;;;;;4975692;28;20410;-61
2022/06/04 07:45:09;;;;;;;7.63;4.38;;;18.70;99.90;;;;;;4975673;28;20043;-61
2022/06/04 07:47:35;;;;;;;8.48;4.90;;;19.40;99.90;;;;;;4975263;28;20082;-62
2022/06/04 07:50:01;;;;;;;7.60;4.28;;;19.30;99.90;;;;;;4958426;28;20055;-62
2022/06/04 07:52:27;;;;;;;10.23;4.93;;;19.10;99.90;;;;;;4975408;28;20502;-61
2022/06/04 07:54:53;;;;;;;8.55;4.72;;;19.00;99.90;;;;;;4974496;28;20047;-62
2022/06/04 07:57:19;;;;;;;6.47;4.30;;;18.90;99.90;;;;;;4975514;28;20058;-62
2022/06/04 07:59:45;;;;;;;8.77;5.00;;;18.60;99.90;;;;;;4957762;28;20038;-62
2022/06/04 08:02:12;;;;;;;8.82;5.10;;;18.50;99.90;;;;;;4975667;28;20046;-62
2022/06/04 08:04:39;;;;;;;6.97;4.68;;;18.20;99.90;;;;;;4974993;28;20420;-62
2022/06/04 08:07:05;;;;;;;7.05;4.65;;;18.50;99.90;;;;;;4975000;28;20050;-62
2022/06/04 08:09:33;;;;;;;7.47;4.68;;;18.70;99.90;;;;;;4975087;28;20141;-61
2022/06/04 08:11:59;;;;;;;8.00;4.57;;;18.70;99.90;;;;;;4975464;28;20039;-62
2022/06/04 08:14:27;;;;;;;6.47;4.63;;;18.60;99.90;;;;;;4974880;28;20139;-62
2022/06/04 08:16:56;;;;;;;10.15;4.90;;;18.60;99.90;;;;;;4975117;28;20054;-62
2022/06/04 08:19:24;;;;;;;9.27;5.00;;;18.50;99.90;;;;;;4974654;28;20051;-62
2022/06/04 08:21:51;;;;;;;7.68;4.60;;;18.30;99.90;;;;;;4975064;28;20396;-62
2022/06/04 08:24:17;;;;;;;8.70;4.30;;;18.30;99.90;;;;;;4975059;28;20167;-62
2022/06/04 08:26:46;;;;;;;8.75;4.40;;;18.30;99.90;;;;;;4957298;28;20090;-61
2022/06/04 08:29:13;;;;;;;6.20;4.13;;;19.00;99.90;;;;;;4974444;28;20561;-62
2022/06/04 08:31:39;;;;;;;8.00;4.45;;;18.40;99.90;;;;;;4974651;28;20109;-62
2022/06/04 08:34:05;;;;;;;8.18;4.45;;;18.60;99.90;;;;;;4975285;28;20051;-62
2022/06/04 08:36:31;;;;;;;8.88;4.35;;;18.60;99.90;;;;;;4974727;28;20560;-62
2022/06/04 08:38:57;;;;;;;6.65;4.28;;;18.60;99.90;;;;;;4941384;28;20062;-62
2022/06/04 08:41:55;;;;;;;7.53;5.03;;;18.70;99.90;;;;;;4974884;28;20117;-62
2022/06/04 08:44:26;;;;;;;9.13;4.93;;;18.70;99.90;;;;;;4941412;28;20078;-62
2022/06/04 08:47:02;;;;;;;7.45;5.10;;;18.60;99.90;;;;;;4974953;28;20047;-62
2022/06/04 08:49:29;;;;;;;7.63;4.70;;;18.60;99.90;;;;;;4957239;28;20055;-62
2022/06/04 08:51:57;;;;;;;8.60;4.60;;;18.80;99.90;;;;;;4974708;28;20051;-62
2022/06/04 09:00:03;;;;;;;10.77;4.95;;;18.80;99.90;;;;;;4974486;28;20058;-62
2022/06/04 09:02:44;;;;;;;7.68;5.70;;;18.80;99.90;;;;;;4974055;28;20534;-62
2022/06/04 09:05:31;;;;;;;9.45;5.13;;;18.70;99.90;;;;;;4973925;28;20058;-62
2022/06/04 09:08:01;;;;;;;8.52;4.78;;;18.50;99.90;;;;;;4974133;28;20186;-62
2022/06/04 09:10:39;;;;;;;8.68;4.90;;;18.50;99.90;;;;;;4974326;28;20410;-62
2022/06/04 09:13:15;;;;;;;6.80;4.88;;;18.60;99.90;;;;;;4956905;28;20510;-62
2022/06/04 09:15:48;;;;;;;9.10;5.38;;;18.60;99.90;;;;;;4974565;28;20245;-62
2022/06/04 09:18:20;;;;;;;7.93;4.80;;;18.50;99.90;;;;;;4973803;28;20043;-63
2022/06/04 09:20:51;;;;;;;6.90;4.70;;;18.70;99.90;;;;;;4973865;28;20117;-63
2022/06/04 09:23:22;;;;;;;6.80;4.80;;;18.90;99.90;;;;;;4974157;28;20054;-63
2022/06/04 09:26:08;;;;;;;8.00;5.05;;;19.00;99.90;;;;;;4956656;28;20051;-63
2022/06/04 09:28:33;;;;;;;;;;;19.00;99.90;;;;;;4934287;28;20347;-63
2022/06/04 09:31:11;;;;;;;6.75;5.10;;;19.00;99.90;;;;;;4973956;28;19928;-63
2022/06/04 09:33:44;;;;;;;8.88;5.22;;;19.00;99.90;;;;;;4973520;28;20055;-63
2022/06/04 09:36:16;;;;;;;10.63;4.47;;;19.00;99.90;;;;;;4973875;28;20054;-63
2022/06/04 09:38:56;;;;;;;9.05;4.80;;;19.10;99.90;;;;;;4973795;28;20051;-63
2022/06/04 09:41:24;;;;;;;7.70;4.43;;;19.20;99.90;;;;;;4973578;28;20585;-57
2022/06/04 09:44:19;;;;;;;8.27;4.43;;;19.50;99.90;;;;;;4973789;28;20054;-57
2022/06/04 09:46:48;;;;;;;5.55;4.40;;;18.60;99.90;;;;;;4956724;28;20398;-56
2022/06/04 09:49:36;;;;;;;7.00;4.80;;;19.30;99.90;;;;;;4973541;28;20347;-56
2022/06/04 09:52:38;;;;;;;7.82;4.50;;;19.20;99.90;;;;;;4973483;28;20054;-57
2022/06/04 09:55:17;;;;;;;7.68;4.43;;;19.30;99.90;;;;;;4973270;28;20491;-57
2022/06/04 09:57:58;;;;;;;8.60;5.10;;;19.40;99.90;;;;;;4973642;28;20125;-56
2022/06/04 10:00:28;;;;;;;6.95;4.72;;;19.50;99.90;;;;;;4973781;28;20458;-57
2022/06/04 10:02:56;;;;;;;6.63;4.47;;;19.40;99.70;;;;;;4973424;28;20125;-57
2022/06/04 10:05:24;;;;;;;8.23;4.72;;;19.30;99.70;;;;;;4955702;28;20082;-56
2022/06/04 10:07:50;;;;;;;7.72;4.55;;;19.20;99.90;;;;;;4973682;28;20046;-57
2022/06/04 10:10:28;;;;;;;6.90;4.82;;;19.10;99.90;;;;;;4973550;28;20049;-57
2022/06/04 10:15:49;;;;;;;18.25;5.07;;;19.30;99.90;;;;;;4973006;28;20520;-57
2022/06/04 10:18:18;;;;;;;6.18;4.53;;;19.40;99.90;;;;;;4972392;28;20054;-57
2022/06/04 10:20:53;;;;;;;7.60;5.30;;;19.50;99.90;;;;;;4972884;28;20109;-57
2022/06/04 10:23:19;;;;;;;8.20;4.63;;;19.60;99.80;;;;;;4973306;28;20126;-56
2022/06/04 10:25:56;;;;;;;9.07;5.30;;;19.60;99.90;;;;;;4973066;28;20130;-57
2022/06/04 10:28:41;;;;;;;7.78;4.78;;;19.70;99.90;;;;;;4972891;28;20050;-57
2022/06/04 10:31:16;;;;;;;8.93;4.88;;;19.90;99.90;;;;;;4972789;28;20064;-56
2022/06/04 10:33:58;;;;;;;9.80;4.63;;;19.90;98.80;;;;;;4972654;28;20121;-57
2022/06/04 10:36:32;;;;;;;9.60;4.78;;;20.00;98.30;;;;;;4972976;28;20051;-57
2022/06/04 10:39:24;;;;;;;6.60;4.60;;;20.10;97.70;;;;;;4972915;28;20066;-57
2022/06/04 10:42:00;;;;;;;9.38;4.95;;;20.10;97.00;;;;;;4972849;28;20054;-57
2022/06/04 10:44:44;;;;;;;9.02;4.75;;;20.10;98.20;;;;;;4973030;28;20066;-57
2022/06/04 10:47:23;;;;;;;6.30;4.60;;;20.10;99.00;;;;;;4972903;28;20057;-57
2022/06/04 10:50:03;;;;;;;6.60;4.43;;;20.20;99.00;;;;;;4955337;28;20466;-57
2022/06/04 10:53:02;;;;;;;6.45;4.50;;;20.30;98.90;;;;;;4955249;28;20047;-57
2022/06/04 10:55:44;;;;;;;9.95;5.20;;;20.40;97.70;;;;;;4973116;28;20054;-57
2022/06/04 10:58:20;;;;;;;7.15;4.93;;;20.50;98.00;;;;;;4973105;28;20051;-57
2022/06/04 11:00:48;;;;;;;8.57;5.20;;;20.60;98.70;;;;;;4972806;28;20053;-57
2022/06/04 11:03:40;;;;;;;7.60;4.65;;;20.80;98.60;;;;;;4955243;28;20054;-57
2022/06/04 11:06:16;;;;;;;7.55;5.18;;;20.90;98.10;;;;;;4972726;28;20109;-57
2022/06/04 11:08:52;;;;;;;10.20;5.22;;;20.90;97.90;;;;;;4973085;28;20053;-57
2022/06/04 11:11:24;;;;;;;;;;;21.10;97.30;;;;;;4973417;28;20059;-57
2022/06/04 11:14:03;;;;;;;6.95;5.03;;;21.10;96.10;;;;;;4972686;28;19922;-57
2022/06/04 11:16:43;;;;;;;10.18;5.82;;;21.20;96.80;;;;;;4972691;28;20055;-57
2022/06/04 11:19:30;;;;;;;8.55;5.53;;;21.40;94.20;;;;;;4972379;28;20047;-57
2022/06/04 11:22:04;;;;;;;12.70;5.50;;;21.30;94.90;;;;;;4972162;28;20057;-57
2022/06/04 11:24:39;;;;;;;8.77;6.00;;;21.40;95.60;;;;;;4972494;28;20065;-57
2022/06/04 11:27:37;;;;;;;7.63;5.45;;;21.40;94.90;;;;;;4972802;28;20086;-57
2022/06/04 11:30:12;;;;;;;6.88;4.72;;;21.40;94.80;;;;;;4970419;28;20090;-57
2022/06/04 11:32:59;;;;;;;8.13;4.80;;;21.40;92.80;;;;;;4976004;28;20413;-57
2022/06/04 11:36:03;;;;;;;9.75;4.80;;;21.40;92.70;;;;;;4975914;28;20051;-57
2022/06/04 11:38:32;;;;;;;7.80;4.40;;;21.50;93.40;;;;;;4946095;28;20272;-57
2022/06/04 11:41:21;;;;;;;6.47;4.32;;;21.60;93.40;;;;;;4975827;28;20044;-56
2022/06/04 11:44:05;;;;;;;6.90;5.00;;;21.70;93.00;;;;;;4990564;23;20090;-57
2022/06/04 11:46:52;;;;;;;7.68;4.28;;;21.90;91.10;;;;;;4958791;28;20054;-57
2022/06/04 11:49:31;;;;;;;8.02;4.28;;;21.90;92.10;;;;;;4975765;28;20109;-57
2022/06/04 11:51:59;;;;;;;5.80;3.83;;;22.00;85.10;;;;;;4975618;28;20501;-57
2022/06/04 11:54:43;;;;;;;6.93;3.97;;;22.00;87.60;;;;;;4976251;28;20043;-57
2022/06/04 11:57:37;;;;;;;6.13;4.13;;;21.90;81.20;;;;;;4975826;28;20046;-57
2022/06/04 12:00:18;;;;;;;8.32;4.22;;;21.80;87.60;;;;;;4957726;28;20051;-57
2022/06/04 12:02:49;;;;;;;4.75;3.53;;;21.70;85.80;;;;;;4975630;28;20517;-57
2022/06/04 12:05:39;;;;;;;6.00;3.55;;;21.70;89.30;;;;;;4974959;28;20093;-57
2022/06/04 12:08:10;;;;;;;4.70;3.40;;;21.80;84.50;;;;;;4995020;28;20082;-57
2022/06/04 12:11:00;;;;;;;6.13;3.90;;;21.90;81.50;;;;;;4995158;28;20513;-56
2022/06/04 12:13:43;;;;;;;7.45;3.88;;;21.90;79.70;;;;;;4995529;28;20375;-57
2022/06/04 12:16:27;;;;;;;9.45;3.65;;;21.90;79.20;;;;;;4994969;28;20054;-57
2022/06/04 12:18:56;;;;;;;5.93;3.25;;;21.90;79.20;;;;;;4995504;28;20116;-57
2022/06/04 12:24:20;;;;;;;6.95;3.95;;;21.70;84.80;;;;;;4995047;28;20047;-57
2022/06/04 12:26:48;;;;;;;5.45;3.63;;;21.50;81.80;;;;;;4995042;28;20481;-57
2022/06/04 12:29:31;;;;;;;6.40;3.72;;;21.50;84.40;;;;;;4977562;28;20417;-57
2022/06/04 12:32:03;;;;;;;6.22;3.60;;;21.60;83.70;;;;;;4994276;28;20050;-57
2022/06/04 12:34:39;;;;;;;9.63;4.00;;;21.60;85.90;;;;;;4994934;28;20046;-57
2022/06/04 12:37:20;;;;;;;13.68;4.10;;;21.80;80.20;;;;;;4994993;28;20054;-57
2022/06/04 12:39:46;;;;;;;7.75;3.67;;;22.10;80.70;;;;;;4994156;28;20046;-57
2022/06/04 12:42:25;;;;;;;7.60;3.45;;;22.50;80.00;;;;;;4994781;28;20112;-57
2022/06/04 12:45:32;;;;;;;7.40;3.78;;;22.80;79.80;;;;;;4994227;28;20502;-57
2022/06/04 12:47:58;;;;;;;8.50;3.83;;;23.00;74.70;;;;;;4961231;28;20046;-57
2022/06/04 12:50:36;;;;;;;6.13;3.30;;;22.80;75.10;;;;;;4977283;28;20053;-57
2022/06/04 12:53:16;;;;;;;5.78;3.25;;;22.80;75.60;;;;;;4994698;28;20140;-57
2022/06/04 12:55:56;;;;;;;5.65;3.50;;;22.80;76.00;;;;;;4994504;28;20050;-57
2022/06/04 12:58:30;;;;;;;6.22;3.35;;;22.90;77.10;;;;;;4994780;28;20053;-57
2022/06/04 13:01:02;;;;;;;5.20;3.25;;;22.90;76.10;;;;;;4993918;28;20067;-57
2022/06/04 13:03:36;;;;;;;5.38;3.60;;;23.10;71.20;;;;;;4993706;28;20052;-57
2022/06/04 13:06:21;;;;;;;7.13;3.22;;;23.00;67.50;;;;;;4993248;28;20489;-57
2022/06/04 13:09:05;;;;;;;5.78;3.28;;;22.90;68.40;;;;;;4993810;28;20065;-57
2022/06/04 13:12:06;;;;;;;6.63;3.70;;;22.90;69.60;;;;;;4994313;28;20042;-57
2022/06/04 13:14:49;;;;;;;6.85;3.70;;;23.00;69.80;;;;;;4994059;28;20127;-57
2022/06/04 13:17:47;;;;;;;6.70;3.42;;;23.00;72.20;;;;;;4993608;28;20145;-57
2022/06/04 13:20:30;;;;;;;7.38;3.58;;;23.00;72.10;;;;;;4989530;28;20080;-57
2022/06/04 13:23:21;;;;;;;6.10;3.55;;;23.30;70.70;;;;;;4993882;28;20492;-57
2022/06/04 13:26:05;;;;;;;4.57;3.30;;;23.50;67.60;;;;;;4993802;28;20133;-57
2022/06/04 13:28:32;;;;;;;6.75;3.10;;;23.50;65.20;;;;;;4994267;28;20082;-57